sensor_id;sensor_type;location;lat;lon;timestamp;P1;durP1;ratioP1;P2;durP2;ratioP2
18288;SDS011;9270;49.774;8.472;2023-05-24T00:00:56;7.57;;;2.10;;
18288;SDS011;9270;49.774;8.472;2023-05-24T00:03:24;11.33;;;2.40;;
18288;SDS011;9270;49.774;8.472;2023-05-24T00:05:51;8.33;;;2.00;;
18288;SDS011;9270;49.774;8.472;2023-05-24T00:08:18;7.03;;;1.73;;
18288;SDS011;9270;49.774;8.472;2023-05-24T00:10:45;7.57;;;1.77;;
18288;SDS011;9270;49.774;8.472;2023-05-24T00:13:13;9.40;;;2.00;;
18288;SDS011;9270;49.774;8.472;2023-05-24T00:15:40;7.30;;;2.10;;
18288;SDS011;9270;49.774;8.472;2023-05-24T00:18:07;9.67;;;2.00;;
18288;SDS011;9270;49.774;8.472;2023-05-24T00:20:34;8.43;;;2.23;;
18288;SDS011;9270;49.774;8.472;2023-05-24T00:23:00;9.10;;;1.97;;
18288;SDS011;9270;49.774;8.472;2023-05-24T00:25:27;9.93;;;2.20;;
18288;SDS011;9270;49.774;8.472;2023-05-24T00:27:54;9.93;;;1.97;;
18288;SDS011;9270;49.774;8.472;2023-05-24T00:30:22;7.03;;;1.90;;
18288;SDS011;9270;49.774;8.472;2023-05-24T00:32:49;10.23;;;2.20;;
18288;SDS011;9270;49.774;8.472;2023-05-24T00:35:15;6.90;;;1.80;;
18288;SDS011;9270;49.774;8.472;2023-05-24T00:37:42;8.07;;;1.73;;
18288;SDS011;9270;49.774;8.472;2023-05-24T00:40:09;7.47;;;1.73;;
18288;SDS011;9270;49.774;8.472;2023-05-24T00:42:36;9.47;;;2.07;;
18288;SDS011;9270;49.774;8.472;2023-05-24T00:45:03;8.07;;;1.83;;
18288;SDS011;9270;49.774;8.472;2023-05-24T00:47:33;12.87;;;2.40;;
18288;SDS011;9270;49.774;8.472;2023-05-24T00:50:00;9.67;;;2.00;;
18288;SDS011;9270;49.774;8.472;2023-05-24T00:52:27;6.60;;;1.90;;
18288;SDS011;9270;49.774;8.472;2023-05-24T00:54:54;8.47;;;1.80;;
18288;SDS011;9270;49.774;8.472;2023-05-24T00:57:20;7.53;;;1.93;;
18288;SDS011;9270;49.774;8.472;2023-05-24T00:59:47;6.97;;;2.17;;
18288;SDS011;9270;49.774;8.472;2023-05-24T01:02:14;9.00;;;2.17;;
18288;SDS011;9270;49.774;8.472;2023-05-24T01:04:43;7.73;;;2.17;;
18288;SDS011;9270;49.774;8.472;2023-05-24T01:07:14;6.83;;;1.97;;
18288;SDS011;9270;49.774;8.472;2023-05-24T01:09:56;7.90;;;1.93;;
18288;SDS011;9270;49.774;8.472;2023-05-24T01:12:29;7.03;;;2.03;;
18288;SDS011;9270;49.774;8.472;2023-05-24T01:15:06;7.83;;;1.97;;
18288;SDS011;9270;49.774;8.472;2023-05-24T01:17:42;7.07;;;2.17;;
18288;SDS011;9270;49.774;8.472;2023-05-24T01:20:16;10.50;;;2.30;;
18288;SDS011;9270;49.774;8.472;2023-05-24T01:26:31;7.83;;;2.00;;
18288;SDS011;9270;49.774;8.472;2023-05-24T01:29:05;11.57;;;2.40;;
18288;SDS011;9270;49.774;8.472;2023-05-24T01:31:33;9.93;;;2.20;;
18288;SDS011;9270;49.774;8.472;2023-05-24T01:34:01;8.93;;;2.30;;
18288;SDS011;9270;49.774;8.472;2023-05-24T01:36:28;8.43;;;2.27;;
18288;SDS011;9270;49.774;8.472;2023-05-24T01:38:55;10.73;;;2.17;;
18288;SDS011;9270;49.774;8.472;2023-05-24T01:41:24;8.97;;;2.07;;
18288;SDS011;9270;49.774;8.472;2023-05-24T01:43:58;7.63;;;1.77;;
18288;SDS011;9270;49.774;8.472;2023-05-24T01:46:33;10.47;;;2.00;;
18288;SDS011;9270;49.774;8.472;2023-05-24T01:49:05;9.13;;;1.90;;
18288;SDS011;9270;49.774;8.472;2023-05-24T01:51:39;8.47;;;1.97;;
18288;SDS011;9270;49.774;8.472;2023-05-24T01:54:13;8.33;;;1.87;;
18288;SDS011;9270;49.774;8.472;2023-05-24T01:56:42;8.37;;;1.90;;
18288;SDS011;9270;49.774;8.472;2023-05-24T01:59:11;7.30;;;1.63;;
18288;SDS011;9270;49.774;8.472;2023-05-24T02:01:40;10.37;;;2.20;;
18288;SDS011;9270;49.774;8.472;2023-05-24T02:04:07;11.67;;;1.83;;
18288;SDS011;9270;49.774;8.472;2023-05-24T02:06:33;7.00;;;1.90;;
18288;SDS011;9270;49.774;8.472;2023-05-24T02:09:02;12.00;;;2.37;;
18288;SDS011;9270;49.774;8.472;2023-05-24T02:11:29;9.37;;;2.00;;
18288;SDS011;9270;49.774;8.472;2023-05-24T02:13:55;7.80;;;1.90;;
18288;SDS011;9270;49.774;8.472;2023-05-24T02:16:22;5.80;;;1.77;;
18288;SDS011;9270;49.774;8.472;2023-05-24T02:18:52;9.17;;;2.00;;
18288;SDS011;9270;49.774;8.472;2023-05-24T02:21:18;7.87;;;2.17;;
18288;SDS011;9270;49.774;8.472;2023-05-24T02:23:47;11.43;;;2.13;;
18288;SDS011;9270;49.774;8.472;2023-05-24T02:26:14;6.93;;;2.10;;
18288;SDS011;9270;49.774;8.472;2023-05-24T02:28:42;7.43;;;1.77;;
18288;SDS011;9270;49.774;8.472;2023-05-24T02:31:09;8.97;;;1.93;;
18288;SDS011;9270;49.774;8.472;2023-05-24T02:33:36;9.60;;;2.23;;
18288;SDS011;9270;49.774;8.472;2023-05-24T02:36:04;8.47;;;2.23;;
18288;SDS011;9270;49.774;8.472;2023-05-24T02:38:31;6.83;;;1.87;;
18288;SDS011;9270;49.774;8.472;2023-05-24T02:40:58;9.47;;;1.70;;
18288;SDS011;9270;49.774;8.472;2023-05-24T02:43:24;8.47;;;2.40;;
18288;SDS011;9270;49.774;8.472;2023-05-24T02:45:51;12.60;;;2.17;;
18288;SDS011;9270;49.774;8.472;2023-05-24T02:48:19;8.80;;;2.10;;
18288;SDS011;9270;49.774;8.472;2023-05-24T02:50:45;9.93;;;2.30;;
18288;SDS011;9270;49.774;8.472;2023-05-24T02:53:14;6.17;;;1.80;;
18288;SDS011;9270;49.774;8.472;2023-05-24T02:55:40;11.43;;;2.00;;
18288;SDS011;9270;49.774;8.472;2023-05-24T02:58:08;6.67;;;1.73;;
18288;SDS011;9270;49.774;8.472;2023-05-24T03:00:36;9.10;;;2.00;;
18288;SDS011;9270;49.774;8.472;2023-05-24T03:03:02;8.80;;;1.90;;
18288;SDS011;9270;49.774;8.472;2023-05-24T03:05:29;6.60;;;1.93;;
18288;SDS011;9270;49.774;8.472;2023-05-24T03:07:56;9.07;;;2.00;;
18288;SDS011;9270;49.774;8.472;2023-05-24T03:10:24;10.57;;;2.00;;
18288;SDS011;9270;49.774;8.472;2023-05-24T03:12:51;8.10;;;1.80;;
18288;SDS011;9270;49.774;8.472;2023-05-24T03:15:18;6.93;;;1.60;;
18288;SDS011;9270;49.774;8.472;2023-05-24T03:17:44;8.97;;;2.03;;
18288;SDS011;9270;49.774;8.472;2023-05-24T03:20:11;9.17;;;1.57;;
18288;SDS011;9270;49.774;8.472;2023-05-24T03:22:39;8.27;;;1.60;;
18288;SDS011;9270;49.774;8.472;2023-05-24T03:25:06;8.47;;;1.50;;
18288;SDS011;9270;49.774;8.472;2023-05-24T03:27:35;5.87;;;1.57;;
18288;SDS011;9270;49.774;8.472;2023-05-24T03:30:02;9.87;;;1.83;;
18288;SDS011;9270;49.774;8.472;2023-05-24T03:32:30;6.57;;;1.70;;
18288;SDS011;9270;49.774;8.472;2023-05-24T03:34:57;4.57;;;1.30;;
18288;SDS011;9270;49.774;8.472;2023-05-24T03:37:25;9.03;;;2.00;;
18288;SDS011;9270;49.774;8.472;2023-05-24T03:39:52;7.47;;;1.60;;
18288;SDS011;9270;49.774;8.472;2023-05-24T03:42:19;7.60;;;1.60;;
18288;SDS011;9270;49.774;8.472;2023-05-24T03:44:47;6.13;;;1.73;;
18288;SDS011;9270;49.774;8.472;2023-05-24T03:47:14;12.73;;;1.97;;
18288;SDS011;9270;49.774;8.472;2023-05-24T03:49:41;7.83;;;2.23;;
18288;SDS011;9270;49.774;8.472;2023-05-24T03:52:07;8.87;;;2.00;;
18288;SDS011;9270;49.774;8.472;2023-05-24T03:54:34;8.53;;;1.73;;
18288;SDS011;9270;49.774;8.472;2023-05-24T03:57:01;8.83;;;2.10;;
18288;SDS011;9270;49.774;8.472;2023-05-24T03:59:28;9.57;;;1.77;;
18288;SDS011;9270;49.774;8.472;2023-05-24T04:01:56;9.03;;;2.10;;
18288;SDS011;9270;49.774;8.472;2023-05-24T04:04:23;8.30;;;1.73;;
18288;SDS011;9270;49.774;8.472;2023-05-24T04:06:50;6.63;;;1.40;;
18288;SDS011;9270;49.774;8.472;2023-05-24T04:09:18;6.20;;;1.90;;
18288;SDS011;9270;49.774;8.472;2023-05-24T04:11:46;8.50;;;1.63;;
18288;SDS011;9270;49.774;8.472;2023-05-24T04:14:13;7.33;;;1.70;;
18288;SDS011;9270;49.774;8.472;2023-05-24T04:16:40;9.53;;;1.97;;
18288;SDS011;9270;49.774;8.472;2023-05-24T04:19:10;8.73;;;1.60;;
18288;SDS011;9270;49.774;8.472;2023-05-24T04:21:37;4.83;;;1.57;;
18288;SDS011;9270;49.774;8.472;2023-05-24T04:24:03;8.63;;;1.33;;
18288;SDS011;9270;49.774;8.472;2023-05-24T04:26:30;5.30;;;1.27;;
18288;SDS011;9270;49.774;8.472;2023-05-24T04:28:58;7.50;;;1.40;;
18288;SDS011;9270;49.774;8.472;2023-05-24T04:31:25;7.80;;;1.47;;
18288;SDS011;9270;49.774;8.472;2023-05-24T04:33:54;9.77;;;1.53;;
18288;SDS011;9270;49.774;8.472;2023-05-24T04:36:22;7.77;;;1.23;;
18288;SDS011;9270;49.774;8.472;2023-05-24T04:38:49;7.47;;;1.37;;
18288;SDS011;9270;49.774;8.472;2023-05-24T04:41:17;8.40;;;1.47;;
18288;SDS011;9270;49.774;8.472;2023-05-24T04:43:46;8.50;;;1.30;;
18288;SDS011;9270;49.774;8.472;2023-05-24T04:46:13;12.03;;;1.70;;
18288;SDS011;9270;49.774;8.472;2023-05-24T04:48:40;10.30;;;1.77;;
18288;SDS011;9270;49.774;8.472;2023-05-24T04:51:06;7.33;;;1.17;;
18288;SDS011;9270;49.774;8.472;2023-05-24T04:53:34;6.17;;;1.47;;
18288;SDS011;9270;49.774;8.472;2023-05-24T04:56:02;7.37;;;1.40;;
18288;SDS011;9270;49.774;8.472;2023-05-24T04:58:29;9.47;;;1.60;;
18288;SDS011;9270;49.774;8.472;2023-05-24T05:00:57;6.33;;;1.30;;
18288;SDS011;9270;49.774;8.472;2023-05-24T05:03:23;6.93;;;1.33;;
18288;SDS011;9270;49.774;8.472;2023-05-24T05:05:50;6.37;;;1.23;;
18288;SDS011;9270;49.774;8.472;2023-05-24T05:08:17;7.40;;;1.40;;
18288;SDS011;9270;49.774;8.472;2023-05-24T05:10:45;6.67;;;1.30;;
18288;SDS011;9270;49.774;8.472;2023-05-24T05:13:12;5.67;;;1.07;;
18288;SDS011;9270;49.774;8.472;2023-05-24T05:15:39;6.07;;;1.23;;
18288;SDS011;9270;49.774;8.472;2023-05-24T05:18:05;8.37;;;1.43;;
18288;SDS011;9270;49.774;8.472;2023-05-24T05:20:32;7.90;;;1.53;;
18288;SDS011;9270;49.774;8.472;2023-05-24T05:22:59;7.00;;;1.20;;
18288;SDS011;9270;49.774;8.472;2023-05-24T05:25:26;6.80;;;1.17;;
18288;SDS011;9270;49.774;8.472;2023-05-24T05:27:56;8.13;;;1.27;;
18288;SDS011;9270;49.774;8.472;2023-05-24T05:30:23;5.60;;;0.90;;
18288;SDS011;9270;49.774;8.472;2023-05-24T05:32:49;8.50;;;1.37;;
18288;SDS011;9270;49.774;8.472;2023-05-24T05:35:16;6.23;;;1.40;;
18288;SDS011;9270;49.774;8.472;2023-05-24T05:37:43;6.67;;;1.10;;
18288;SDS011;9270;49.774;8.472;2023-05-24T05:40:10;10.03;;;1.80;;
18288;SDS011;9270;49.774;8.472;2023-05-24T05:42:37;8.40;;;1.20;;
18288;SDS011;9270;49.774;8.472;2023-05-24T05:45:06;7.10;;;1.27;;
18288;SDS011;9270;49.774;8.472;2023-05-24T05:47:33;10.10;;;1.47;;
18288;SDS011;9270;49.774;8.472;2023-05-24T05:50:00;8.13;;;1.30;;
18288;SDS011;9270;49.774;8.472;2023-05-24T05:52:27;8.10;;;1.27;;
18288;SDS011;9270;49.774;8.472;2023-05-24T05:54:54;6.27;;;1.00;;
18288;SDS011;9270;49.774;8.472;2023-05-24T05:57:20;10.37;;;1.17;;
18288;SDS011;9270;49.774;8.472;2023-05-24T05:59:48;9.47;;;1.50;;
18288;SDS011;9270;49.774;8.472;2023-05-24T06:02:16;7.00;;;1.23;;
18288;SDS011;9270;49.774;8.472;2023-05-24T06:04:44;5.07;;;0.70;;
18288;SDS011;9270;49.774;8.472;2023-05-24T06:07:10;7.27;;;1.47;;
18288;SDS011;9270;49.774;8.472;2023-05-24T06:09:37;6.17;;;1.20;;
18288;SDS011;9270;49.774;8.472;2023-05-24T06:12:05;4.87;;;0.87;;
18288;SDS011;9270;49.774;8.472;2023-05-24T06:14:31;6.37;;;1.23;;
18288;SDS011;9270;49.774;8.472;2023-05-24T06:19:52;8.93;;;1.17;;
18288;SDS011;9270;49.774;8.472;2023-05-24T06:22:19;10.00;;;1.33;;
18288;SDS011;9270;49.774;8.472;2023-05-24T06:24:46;3.10;;;0.90;;
18288;SDS011;9270;49.774;8.472;2023-05-24T06:27:14;6.50;;;0.90;;
18288;SDS011;9270;49.774;8.472;2023-05-24T06:29:41;5.57;;;1.10;;
18288;SDS011;9270;49.774;8.472;2023-05-24T06:32:07;7.22;;;1.58;;
18288;SDS011;9270;49.774;8.472;2023-05-24T06:34:35;11.00;;;1.10;;
18288;SDS011;9270;49.774;8.472;2023-05-24T06:37:02;7.53;;;1.10;;
18288;SDS011;9270;49.774;8.472;2023-05-24T06:39:29;6.60;;;1.13;;
18288;SDS011;9270;49.774;8.472;2023-05-24T06:41:56;5.70;;;1.27;;
18288;SDS011;9270;49.774;8.472;2023-05-24T06:44:23;9.52;;;1.67;;
18288;SDS011;9270;49.774;8.472;2023-05-24T06:46:55;5.72;;;1.17;;
18288;SDS011;9270;49.774;8.472;2023-05-24T06:49:22;5.15;;;0.90;;
18288;SDS011;9270;49.774;8.472;2023-05-24T06:51:50;6.32;;;1.30;;
18288;SDS011;9270;49.774;8.472;2023-05-24T06:54:17;5.75;;;1.08;;
18288;SDS011;9270;49.774;8.472;2023-05-24T06:56:43;3.97;;;1.05;;
18288;SDS011;9270;49.774;8.472;2023-05-24T06:59:10;6.75;;;1.00;;
18288;SDS011;9270;49.774;8.472;2023-05-24T07:01:37;8.70;;;1.27;;
18288;SDS011;9270;49.774;8.472;2023-05-24T07:04:06;5.68;;;1.10;;
18288;SDS011;9270;49.774;8.472;2023-05-24T07:06:33;8.75;;;1.25;;
18288;SDS011;9270;49.774;8.472;2023-05-24T07:09:03;7.55;;;1.33;;
18288;SDS011;9270;49.774;8.472;2023-05-24T07:11:31;8.95;;;1.33;;
18288;SDS011;9270;49.774;8.472;2023-05-24T07:13:57;6.55;;;1.10;;
18288;SDS011;9270;49.774;8.472;2023-05-24T07:16:24;4.07;;;1.08;;
18288;SDS011;9270;49.774;8.472;2023-05-24T07:18:51;5.93;;;1.33;;
18288;SDS011;9270;49.774;8.472;2023-05-24T07:21:17;8.93;;;1.17;;
18288;SDS011;9270;49.774;8.472;2023-05-24T07:23:44;5.93;;;1.20;;
18288;SDS011;9270;49.774;8.472;2023-05-24T07:26:12;5.00;;;1.00;;
18288;SDS011;9270;49.774;8.472;2023-05-24T07:28:39;6.10;;;0.95;;
18288;SDS011;9270;49.774;8.472;2023-05-24T07:31:07;8.52;;;1.23;;
18288;SDS011;9270;49.774;8.472;2023-05-24T07:33:34;8.18;;;1.30;;
18288;SDS011;9270;49.774;8.472;2023-05-24T07:36:02;6.82;;;1.05;;
18288;SDS011;9270;49.774;8.472;2023-05-24T07:38:29;7.32;;;1.33;;
18288;SDS011;9270;49.774;8.472;2023-05-24T07:40:57;5.15;;;1.20;;
18288;SDS011;9270;49.774;8.472;2023-05-24T07:43:26;6.03;;;1.27;;
18288;SDS011;9270;49.774;8.472;2023-05-24T07:45:53;5.03;;;1.10;;
18288;SDS011;9270;49.774;8.472;2023-05-24T07:48:20;7.32;;;1.20;;
18288;SDS011;9270;49.774;8.472;2023-05-24T07:50:47;7.45;;;1.35;;
18288;SDS011;9270;49.774;8.472;2023-05-24T07:53:14;6.13;;;1.08;;
18288;SDS011;9270;49.774;8.472;2023-05-24T07:55:41;5.85;;;1.20;;
18288;SDS011;9270;49.774;8.472;2023-05-24T07:58:08;6.88;;;1.17;;
18288;SDS011;9270;49.774;8.472;2023-05-24T08:00:36;5.45;;;1.40;;
18288;SDS011;9270;49.774;8.472;2023-05-24T08:03:03;5.88;;;1.17;;
18288;SDS011;9270;49.774;8.472;2023-05-24T08:05:31;7.68;;;1.38;;
18288;SDS011;9270;49.774;8.472;2023-05-24T08:07:58;6.35;;;1.20;;
18288;SDS011;9270;49.774;8.472;2023-05-24T08:10:24;7.85;;;1.35;;
18288;SDS011;9270;49.774;8.472;2023-05-24T08:12:51;6.75;;;1.45;;
18288;SDS011;9270;49.774;8.472;2023-05-24T08:15:20;7.95;;;1.20;;
18288;SDS011;9270;49.774;8.472;2023-05-24T08:17:48;4.88;;;1.08;;
18288;SDS011;9270;49.774;8.472;2023-05-24T08:20:14;7.68;;;1.80;;
18288;SDS011;9270;49.774;8.472;2023-05-24T08:22:41;6.03;;;1.50;;
18288;SDS011;9270;49.774;8.472;2023-05-24T08:25:08;5.25;;;1.17;;
18288;SDS011;9270;49.774;8.472;2023-05-24T08:27:35;8.05;;;1.63;;
18288;SDS011;9270;49.774;8.472;2023-05-24T08:30:02;7.15;;;1.50;;
18288;SDS011;9270;49.774;8.472;2023-05-24T08:32:30;7.13;;;1.35;;
18288;SDS011;9270;49.774;8.472;2023-05-24T08:34:58;5.88;;;1.25;;
18288;SDS011;9270;49.774;8.472;2023-05-24T08:37:25;6.50;;;1.75;;
18288;SDS011;9270;49.774;8.472;2023-05-24T08:39:52;7.40;;;1.42;;
18288;SDS011;9270;49.774;8.472;2023-05-24T08:42:19;7.78;;;1.60;;
18288;SDS011;9270;49.774;8.472;2023-05-24T08:44:51;9.07;;;1.60;;
18288;SDS011;9270;49.774;8.472;2023-05-24T08:47:19;10.00;;;2.17;;
18288;SDS011;9270;49.774;8.472;2023-05-24T08:49:46;7.78;;;1.58;;
18288;SDS011;9270;49.774;8.472;2023-05-24T08:52:14;9.23;;;1.60;;
18288;SDS011;9270;49.774;8.472;2023-05-24T08:54:41;6.57;;;1.40;;
18288;SDS011;9270;49.774;8.472;2023-05-24T08:57:08;7.05;;;1.40;;
18288;SDS011;9270;49.774;8.472;2023-05-24T08:59:36;6.72;;;1.58;;
18288;SDS011;9270;49.774;8.472;2023-05-24T09:02:04;6.22;;;1.30;;
18288;SDS011;9270;49.774;8.472;2023-05-24T09:04:34;7.95;;;1.52;;
18288;SDS011;9270;49.774;8.472;2023-05-24T09:07:03;7.85;;;1.40;;
18288;SDS011;9270;49.774;8.472;2023-05-24T09:09:31;8.73;;;1.92;;
18288;SDS011;9270;49.774;8.472;2023-05-24T09:12:01;6.18;;;1.48;;
18288;SDS011;9270;49.774;8.472;2023-05-24T09:14:30;7.93;;;1.70;;
18288;SDS011;9270;49.774;8.472;2023-05-24T09:16:58;5.65;;;1.35;;
18288;SDS011;9270;49.774;8.472;2023-05-24T09:19:25;9.80;;;1.70;;
18288;SDS011;9270;49.774;8.472;2023-05-24T09:21:53;6.65;;;1.65;;
18288;SDS011;9270;49.774;8.472;2023-05-24T09:24:21;7.00;;;1.70;;
18288;SDS011;9270;49.774;8.472;2023-05-24T09:26:49;7.15;;;1.50;;
18288;SDS011;9270;49.774;8.472;2023-05-24T09:29:20;7.80;;;2.28;;
18288;SDS011;9270;49.774;8.472;2023-05-24T09:31:48;9.88;;;1.52;;
18288;SDS011;9270;49.774;8.472;2023-05-24T09:34:15;7.70;;;1.35;;
18288;SDS011;9270;49.774;8.472;2023-05-24T09:36:44;9.02;;;1.50;;
18288;SDS011;9270;49.774;8.472;2023-05-24T09:39:12;9.48;;;2.05;;
18288;SDS011;9270;49.774;8.472;2023-05-24T09:41:42;6.03;;;1.30;;
18288;SDS011;9270;49.774;8.472;2023-05-24T09:44:11;7.70;;;1.23;;
18288;SDS011;9270;49.774;8.472;2023-05-24T09:46:38;9.38;;;1.65;;
18288;SDS011;9270;49.774;8.472;2023-05-24T09:49:05;6.65;;;1.60;;
18288;SDS011;9270;49.774;8.472;2023-05-24T09:51:33;7.50;;;1.60;;
18288;SDS011;9270;49.774;8.472;2023-05-24T09:54:02;8.80;;;1.73;;
18288;SDS011;9270;49.774;8.472;2023-05-24T09:56:31;7.22;;;1.60;;
18288;SDS011;9270;49.774;8.472;2023-05-24T09:59:03;6.60;;;1.50;;
18288;SDS011;9270;49.774;8.472;2023-05-24T10:01:33;7.78;;;1.58;;
18288;SDS011;9270;49.774;8.472;2023-05-24T10:04:00;4.55;;;1.20;;
18288;SDS011;9270;49.774;8.472;2023-05-24T10:06:30;8.88;;;1.50;;
18288;SDS011;9270;49.774;8.472;2023-05-24T10:09:01;8.65;;;1.48;;
18288;SDS011;9270;49.774;8.472;2023-05-24T10:11:30;7.15;;;1.45;;
18288;SDS011;9270;49.774;8.472;2023-05-24T10:13:57;11.68;;;1.50;;
18288;SDS011;9270;49.774;8.472;2023-05-24T10:16:24;8.50;;;1.70;;
18288;SDS011;9270;49.774;8.472;2023-05-24T10:18:52;8.00;;;1.85;;
18288;SDS011;9270;49.774;8.472;2023-05-24T10:21:20;9.35;;;1.65;;
18288;SDS011;9270;49.774;8.472;2023-05-24T10:23:50;6.07;;;1.30;;
18288;SDS011;9270;49.774;8.472;2023-05-24T10:26:19;3.72;;;0.93;;
18288;SDS011;9270;49.774;8.472;2023-05-24T10:28:51;6.93;;;1.20;;
18288;SDS011;9270;49.774;8.472;2023-05-24T10:31:21;4.38;;;0.90;;
18288;SDS011;9270;49.774;8.472;2023-05-24T10:33:50;6.30;;;1.25;;
18288;SDS011;9270;49.774;8.472;2023-05-24T10:36:21;6.88;;;1.20;;
18288;SDS011;9270;49.774;8.472;2023-05-24T10:38:50;5.50;;;1.30;;
18288;SDS011;9270;49.774;8.472;2023-05-24T10:41:17;6.72;;;1.50;;
18288;SDS011;9270;49.774;8.472;2023-05-24T10:43:44;7.20;;;1.30;;
18288;SDS011;9270;49.774;8.472;2023-05-24T10:46:13;12.07;;;1.90;;
18288;SDS011;9270;49.774;8.472;2023-05-24T10:48:41;8.80;;;1.30;;
18288;SDS011;9270;49.774;8.472;2023-05-24T10:54:11;8.65;;;1.50;;
18288;SDS011;9270;49.774;8.472;2023-05-24T10:56:40;7.07;;;1.65;;
18288;SDS011;9270;49.774;8.472;2023-05-24T10:59:07;8.20;;;1.50;;
18288;SDS011;9270;49.774;8.472;2023-05-24T11:01:34;7.15;;;1.42;;
18288;SDS011;9270;49.774;8.472;2023-05-24T11:04:05;4.90;;;1.17;;
18288;SDS011;9270;49.774;8.472;2023-05-24T11:09:20;4.30;;;1.13;;
18288;SDS011;9270;49.774;8.472;2023-05-24T11:11:48;7.90;;;1.63;;
18288;SDS011;9270;49.774;8.472;2023-05-24T11:14:21;5.32;;;1.30;;
18288;SDS011;9270;49.774;8.472;2023-05-24T11:16:49;7.07;;;1.73;;
18288;SDS011;9270;49.774;8.472;2023-05-24T11:19:16;7.43;;;1.42;;
18288;SDS011;9270;49.774;8.472;2023-05-24T11:21:44;6.53;;;1.38;;
18288;SDS011;9270;49.774;8.472;2023-05-24T11:24:13;6.03;;;1.30;;
18288;SDS011;9270;49.774;8.472;2023-05-24T11:26:41;7.80;;;1.50;;
18288;SDS011;9270;49.774;8.472;2023-05-24T11:29:09;6.93;;;1.35;;
18288;SDS011;9270;49.774;8.472;2023-05-24T11:31:45;7.38;;;1.15;;
18288;SDS011;9270;49.774;8.472;2023-05-24T11:34:12;5.07;;;1.20;;
18288;SDS011;9270;49.774;8.472;2023-05-24T11:36:40;7.25;;;1.85;;
18288;SDS011;9270;49.774;8.472;2023-05-24T11:39:07;7.43;;;1.70;;
18288;SDS011;9270;49.774;8.472;2023-05-24T11:41:36;6.18;;;1.50;;
18288;SDS011;9270;49.774;8.472;2023-05-24T11:44:03;8.88;;;1.67;;
18288;SDS011;9270;49.774;8.472;2023-05-24T11:46:31;6.97;;;1.20;;
18288;SDS011;9270;49.774;8.472;2023-05-24T11:48:59;5.50;;;1.45;;
18288;SDS011;9270;49.774;8.472;2023-05-24T11:51:26;6.30;;;1.55;;
18288;SDS011;9270;49.774;8.472;2023-05-24T11:53:55;6.40;;;1.48;;
18288;SDS011;9270;49.774;8.472;2023-05-24T11:56:23;7.55;;;1.50;;
18288;SDS011;9270;49.774;8.472;2023-05-24T11:58:55;7.32;;;1.73;;
18288;SDS011;9270;49.774;8.472;2023-05-24T12:01:34;7.95;;;1.42;;
18288;SDS011;9270;49.774;8.472;2023-05-24T12:04:04;11.07;;;1.90;;
18288;SDS011;9270;49.774;8.472;2023-05-24T12:06:34;11.18;;;1.92;;
18288;SDS011;9270;49.774;8.472;2023-05-24T12:09:02;6.53;;;1.88;;
18288;SDS011;9270;49.774;8.472;2023-05-24T12:11:32;8.50;;;1.90;;
18288;SDS011;9270;49.774;8.472;2023-05-24T12:14:00;6.95;;;1.50;;
18288;SDS011;9270;49.774;8.472;2023-05-24T12:16:27;9.02;;;2.22;;
18288;SDS011;9270;49.774;8.472;2023-05-24T12:18:57;8.63;;;1.70;;
18288;SDS011;9270;49.774;8.472;2023-05-24T12:21:24;7.25;;;1.45;;
18288;SDS011;9270;49.774;8.472;2023-05-24T12:23:51;5.85;;;1.40;;
18288;SDS011;9270;49.774;8.472;2023-05-24T12:26:17;8.48;;;1.35;;
18288;SDS011;9270;49.774;8.472;2023-05-24T12:28:46;12.30;;;1.60;;
18288;SDS011;9270;49.774;8.472;2023-05-24T12:31:20;7.80;;;1.75;;
18288;SDS011;9270;49.774;8.472;2023-05-24T12:33:47;8.15;;;1.52;;
18288;SDS011;9270;49.774;8.472;2023-05-24T12:36:14;5.63;;;1.70;;
18288;SDS011;9270;49.774;8.472;2023-05-24T12:38:41;6.25;;;1.60;;
18288;SDS011;9270;49.774;8.472;2023-05-24T12:41:09;5.90;;;1.48;;
18288;SDS011;9270;49.774;8.472;2023-05-24T12:43:37;7.18;;;1.30;;
18288;SDS011;9270;49.774;8.472;2023-05-24T12:46:04;11.40;;;1.73;;
18288;SDS011;9270;49.774;8.472;2023-05-24T12:48:33;10.43;;;1.35;;
18288;SDS011;9270;49.774;8.472;2023-05-24T12:50:59;7.30;;;1.52;;
18288;SDS011;9270;49.774;8.472;2023-05-24T12:53:28;10.25;;;1.70;;
18288;SDS011;9270;49.774;8.472;2023-05-24T12:55:54;4.85;;;1.10;;
18288;SDS011;9270;49.774;8.472;2023-05-24T12:58:21;7.45;;;1.58;;
18288;SDS011;9270;49.774;8.472;2023-05-24T13:00:48;7.80;;;1.42;;
18288;SDS011;9270;49.774;8.472;2023-05-24T13:03:15;8.10;;;2.03;;
18288;SDS011;9270;49.774;8.472;2023-05-24T13:05:44;5.45;;;1.42;;
18288;SDS011;9270;49.774;8.472;2023-05-24T13:08:11;9.20;;;2.05;;
18288;SDS011;9270;49.774;8.472;2023-05-24T13:10:38;6.03;;;1.30;;
18288;SDS011;9270;49.774;8.472;2023-05-24T13:13:05;8.18;;;1.55;;
18288;SDS011;9270;49.774;8.472;2023-05-24T13:15:32;10.40;;;1.55;;
18288;SDS011;9270;49.774;8.472;2023-05-24T13:17:59;9.52;;;1.60;;
18288;SDS011;9270;49.774;8.472;2023-05-24T13:20:25;6.03;;;1.45;;
18288;SDS011;9270;49.774;8.472;2023-05-24T13:22:54;8.73;;;1.80;;
18288;SDS011;9270;49.774;8.472;2023-05-24T13:25:21;7.00;;;1.58;;
18288;SDS011;9270;49.774;8.472;2023-05-24T13:27:47;5.75;;;1.63;;
18288;SDS011;9270;49.774;8.472;2023-05-24T13:30:14;7.38;;;1.52;;
18288;SDS011;9270;49.774;8.472;2023-05-24T13:32:42;9.45;;;1.73;;
18288;SDS011;9270;49.774;8.472;2023-05-24T13:35:09;9.20;;;1.70;;
18288;SDS011;9270;49.774;8.472;2023-05-24T13:37:36;7.18;;;1.60;;
18288;SDS011;9270;49.774;8.472;2023-05-24T13:40:05;4.75;;;1.30;;
18288;SDS011;9270;49.774;8.472;2023-05-24T13:42:32;6.78;;;1.33;;
18288;SDS011;9270;49.774;8.472;2023-05-24T13:44:59;7.68;;;1.70;;
18288;SDS011;9270;49.774;8.472;2023-05-24T13:47:27;7.03;;;1.42;;
18288;SDS011;9270;49.774;8.472;2023-05-24T13:49:54;7.93;;;1.65;;
18288;SDS011;9270;49.774;8.472;2023-05-24T13:52:21;5.38;;;1.50;;
18288;SDS011;9270;49.774;8.472;2023-05-24T13:54:48;10.98;;;1.75;;
18288;SDS011;9270;49.774;8.472;2023-05-24T13:57:17;8.30;;;1.55;;
18288;SDS011;9270;49.774;8.472;2023-05-24T13:59:43;4.85;;;1.70;;
18288;SDS011;9270;49.774;8.472;2023-05-24T14:02:10;8.82;;;1.52;;
18288;SDS011;9270;49.774;8.472;2023-05-24T14:04:37;5.65;;;1.30;;
18288;SDS011;9270;49.774;8.472;2023-05-24T14:07:04;7.65;;;1.52;;
18288;SDS011;9270;49.774;8.472;2023-05-24T14:09:32;9.60;;;1.45;;
18288;SDS011;9270;49.774;8.472;2023-05-24T14:11:59;6.97;;;1.77;;
18288;SDS011;9270;49.774;8.472;2023-05-24T14:14:28;9.65;;;2.05;;
18288;SDS011;9270;49.774;8.472;2023-05-24T14:16:55;5.20;;;1.73;;
18288;SDS011;9270;49.774;8.472;2023-05-24T14:19:21;5.07;;;1.52;;
18288;SDS011;9270;49.774;8.472;2023-05-24T14:21:48;8.70;;;1.50;;
18288;SDS011;9270;49.774;8.472;2023-05-24T14:24:15;6.22;;;1.50;;
18288;SDS011;9270;49.774;8.472;2023-05-24T14:26:42;6.97;;;1.50;;
18288;SDS011;9270;49.774;8.472;2023-05-24T14:29:11;11.07;;;1.60;;
18288;SDS011;9270;49.774;8.472;2023-05-24T14:31:39;9.68;;;1.75;;
18288;SDS011;9270;49.774;8.472;2023-05-24T14:34:07;7.15;;;1.55;;
18288;SDS011;9270;49.774;8.472;2023-05-24T14:36:35;7.78;;;1.70;;
18288;SDS011;9270;49.774;8.472;2023-05-24T14:39:03;8.85;;;1.60;;
18288;SDS011;9270;49.774;8.472;2023-05-24T14:41:31;7.43;;;1.92;;
18288;SDS011;9270;49.774;8.472;2023-05-24T14:43:58;6.60;;;1.52;;
18288;SDS011;9270;49.774;8.472;2023-05-24T14:46:25;9.07;;;1.63;;
18288;SDS011;9270;49.774;8.472;2023-05-24T14:48:53;8.75;;;1.60;;
18288;SDS011;9270;49.774;8.472;2023-05-24T14:51:19;9.00;;;1.70;;
18288;SDS011;9270;49.774;8.472;2023-05-24T14:53:46;7.78;;;1.70;;
18288;SDS011;9270;49.774;8.472;2023-05-24T14:56:13;8.40;;;1.50;;
18288;SDS011;9270;49.774;8.472;2023-05-24T14:58:40;7.80;;;1.80;;
18288;SDS011;9270;49.774;8.472;2023-05-24T15:01:07;7.65;;;1.42;;
18288;SDS011;9270;49.774;8.472;2023-05-24T15:03:34;8.10;;;1.65;;
18288;SDS011;9270;49.774;8.472;2023-05-24T15:06:02;8.35;;;1.60;;
18288;SDS011;9270;49.774;8.472;2023-05-24T15:08:30;10.43;;;1.45;;
18288;SDS011;9270;49.774;8.472;2023-05-24T15:10:58;7.97;;;1.95;;
18288;SDS011;9270;49.774;8.472;2023-05-24T15:13:24;7.70;;;1.73;;
18288;SDS011;9270;49.774;8.472;2023-05-24T15:15:51;10.15;;;1.67;;